createdAt,value
2023-04-16T00:01:39.373Z,8.10
2023-04-16T00:04:33.266Z,8.10
2023-04-16T00:07:20.606Z,8.10
2023-04-16T00:10:15.132Z,8.10
2023-04-16T00:13:02.376Z,8.10
2023-04-16T00:15:56.178Z,8.10
2023-04-16T00:18:43.350Z,8.10
2023-04-16T00:21:38.222Z,8.10
2023-04-16T00:24:25.504Z,8.10
2023-04-16T00:27:19.204Z,8.10
2023-04-16T00:30:07.314Z,8.20
2023-04-16T00:33:01.331Z,8.20
2023-04-16T00:35:48.860Z,8.20
2023-04-16T00:38:42.232Z,8.20
2023-04-16T00:41:29.381Z,8.20
2023-04-16T00:44:23.268Z,8.20
2023-04-16T00:47:10.929Z,8.20
2023-04-16T00:50:04.226Z,8.20
2023-04-16T00:52:51.539Z,8.20
2023-04-16T00:55:46.209Z,8.30
2023-04-16T00:58:42.306Z,8.20
2023-04-16T01:01:29.489Z,8.30
2023-04-16T01:04:23.284Z,8.30
2023-04-16T01:07:10.496Z,8.30
2023-04-16T01:10:04.253Z,8.30
2023-04-16T01:12:51.279Z,8.30
2023-04-16T01:15:45.278Z,8.30
2023-04-16T01:18:39.291Z,8.40
2023-04-16T01:21:26.573Z,8.40
2023-04-16T01:24:20.302Z,8.40
2023-04-16T01:27:07.411Z,8.40
2023-04-16T01:30:03.304Z,8.40
2023-04-16T01:32:50.562Z,8.40
2023-04-16T01:35:44.309Z,8.40
2023-04-16T01:38:31.370Z,8.40
2023-04-16T01:41:25.279Z,8.40
2023-04-16T01:44:12.436Z,8.40
2023-04-16T01:47:06.321Z,8.40
2023-04-16T01:49:53.714Z,8.40
2023-04-16T01:52:47.368Z,8.40
2023-04-16T01:55:41.285Z,8.40
2023-04-16T01:58:36.315Z,8.40
2023-04-16T02:01:24.316Z,8.40
2023-04-16T02:04:19.326Z,8.40
2023-04-16T02:07:07.137Z,8.40
2023-04-16T02:10:01.663Z,8.40
2023-04-16T02:12:48.793Z,8.40
2023-04-16T02:15:42.414Z,8.40
2023-04-16T02:18:36.397Z,8.40
2023-04-16T02:21:23.553Z,8.40
2023-04-16T02:24:17.385Z,8.40
2023-04-16T02:27:11.620Z,8.40
2023-04-16T02:29:58.760Z,8.40
2023-04-16T02:32:52.515Z,8.40
2023-04-16T02:35:47.665Z,8.40
2023-04-16T02:38:44.482Z,8.40
2023-04-16T02:41:31.716Z,8.40
2023-04-16T02:44:25.431Z,8.40
2023-04-16T02:47:12.591Z,8.40
2023-04-16T02:50:06.721Z,8.40
2023-04-16T02:53:00.440Z,8.40
2023-04-16T02:56:09.560Z,8.40
2023-04-16T02:59:02.988Z,8.30
2023-04-16T03:01:56.520Z,8.30
2023-04-16T03:04:43.780Z,8.30
2023-04-16T03:07:37.447Z,8.30
2023-04-16T03:10:24.639Z,8.30
2023-04-16T03:13:18.414Z,8.30
2023-04-16T03:16:05.823Z,8.30
2023-04-16T03:18:59.450Z,8.30
2023-04-16T03:21:46.523Z,8.30
2023-04-16T03:24:40.501Z,8.30
2023-04-16T03:27:27.578Z,8.30
2023-04-16T03:30:23.563Z,8.20
2023-04-16T03:33:10.707Z,8.20
2023-04-16T03:36:05.445Z,8.20
2023-04-16T03:38:52.718Z,8.20
2023-04-16T03:41:46.556Z,8.20
2023-04-16T03:44:33.947Z,8.20
2023-04-16T03:47:27.538Z,8.20
2023-04-16T03:50:21.463Z,8.10
2023-04-16T03:53:08.669Z,8.10
2023-04-16T03:56:02.501Z,8.10
2023-04-16T03:58:49.600Z,8.10
2023-04-16T04:01:43.515Z,8.20
2023-04-16T04:04:37.639Z,8.20
2023-04-16T04:07:24.885Z,8.20
2023-04-16T04:10:18.708Z,8.20
2023-04-16T04:13:07.017Z,8.20
2023-04-16T04:16:00.575Z,8.10
2023-04-16T04:18:47.827Z,8.10
2023-04-16T04:21:41.549Z,8.00
2023-04-16T04:24:28.634Z,8.00
2023-04-16T04:27:22.533Z,8.00
2023-04-16T04:30:10.418Z,8.00
2023-04-16T04:33:04.592Z,8.00
2023-04-16T04:35:52.120Z,8.00
2023-04-16T04:38:45.585Z,8.00
2023-04-16T04:41:39.604Z,7.90
2023-04-16T04:44:26.604Z,8.00
2023-04-16T04:47:21.667Z,8.00
2023-04-16T04:50:09.220Z,8.00
2023-04-16T04:53:02.735Z,8.00
2023-04-16T04:55:53.173Z,8.00
2023-04-16T04:58:49.597Z,8.00
2023-04-16T05:01:36.953Z,8.00
2023-04-16T05:04:30.565Z,8.00
2023-04-16T05:07:17.636Z,8.00
2023-04-16T05:10:11.589Z,8.00
2023-04-16T05:12:59.202Z,8.00
2023-04-16T05:15:52.932Z,8.00
2023-04-16T05:18:40.005Z,8.00
2023-04-16T05:21:33.611Z,8.00
2023-04-16T05:24:20.752Z,8.00
2023-04-16T05:27:14.641Z,8.10
2023-04-16T05:30:01.806Z,8.10
2023-04-16T05:32:55.747Z,8.00
2023-04-16T05:35:42.860Z,8.10
2023-04-16T05:38:36.651Z,8.10
2023-04-16T05:41:30.392Z,8.10
2023-04-16T05:44:23.688Z,8.10
2023-04-16T05:47:11.004Z,8.10
2023-04-16T05:50:11.657Z,8.10
2023-04-16T05:52:58.933Z,8.10
2023-04-16T05:55:53.695Z,8.10
2023-04-16T05:58:40.780Z,8.10
2023-04-16T06:01:34.731Z,8.10
2023-04-16T06:04:21.921Z,8.20
2023-04-16T06:07:15.713Z,8.20
2023-04-16T06:10:02.780Z,8.20
2023-04-16T06:12:56.654Z,8.20
2023-04-16T06:15:43.744Z,8.20
2023-04-16T06:18:37.724Z,8.20
2023-04-16T06:21:24.841Z,8.20
2023-04-16T06:24:19.720Z,8.20
2023-04-16T06:27:06.815Z,8.20
2023-04-16T06:30:00.762Z,8.30
2023-04-16T06:32:48.116Z,8.30
2023-04-16T06:35:43.019Z,8.30
2023-04-16T06:38:30.129Z,8.30
2023-04-16T06:41:23.781Z,8.30
2023-04-16T06:44:11.157Z,8.40
2023-04-16T06:47:05.096Z,8.40
2023-04-16T06:49:52.254Z,8.40
2023-04-16T06:52:46.051Z,8.40
2023-04-16T06:55:33.127Z,8.40
2023-04-16T06:58:26.790Z,8.40
2023-04-16T07:01:14.130Z,8.40
2023-04-16T07:04:07.893Z,8.40
2023-04-16T07:07:01.792Z,8.40
2023-04-16T07:09:56.124Z,8.50
2023-04-16T07:12:43.291Z,8.50
2023-04-16T07:15:36.895Z,8.50
2023-04-16T07:18:24.027Z,8.50
2023-04-16T07:21:17.822Z,8.50
2023-04-16T07:24:05.028Z,8.50
2023-04-16T07:26:58.924Z,8.60
2023-04-16T07:29:46.106Z,8.60
2023-04-16T07:32:39.882Z,8.60
2023-04-16T07:35:27.497Z,8.70
2023-04-16T07:38:22.811Z,8.70
2023-04-16T07:41:16.900Z,8.70
2023-04-16T07:44:10.913Z,8.70
2023-04-16T07:47:05.836Z,8.70
2023-04-16T07:49:59.965Z,8.80
2023-04-16T07:52:53.837Z,8.80
2023-04-16T07:55:41.022Z,8.80
2023-04-16T07:58:35.193Z,8.80
2023-04-16T08:01:22.450Z,8.90
2023-04-16T08:04:16.386Z,8.90
2023-04-16T08:07:03.656Z,8.90
2023-04-16T08:10:00.918Z,8.90
2023-04-16T08:12:55.029Z,9.00
2023-04-16T08:15:42.186Z,9.00
2023-04-16T08:18:35.910Z,9.00
2023-04-16T08:21:23.034Z,9.00
2023-04-16T08:24:16.919Z,9.10
2023-04-16T08:27:15.432Z,9.10
2023-04-16T08:30:12.992Z,9.10
2023-04-16T08:33:00.475Z,9.10
2023-04-16T08:35:53.906Z,9.10
2023-04-16T08:38:41.056Z,9.10
2023-04-16T08:41:38.906Z,9.10
2023-04-16T08:44:34.942Z,9.10
2023-04-16T08:47:31.016Z,9.10
2023-04-16T08:50:23.873Z,9.20
2023-04-16T08:53:20.261Z,9.20
2023-04-16T08:56:11.520Z,9.20
2023-04-16T08:59:08.419Z,9.20
2023-04-16T09:02:00.130Z,9.20
2023-04-16T09:04:55.214Z,9.20
2023-04-16T09:07:43.708Z,9.20
2023-04-16T09:10:38.148Z,9.30
2023-04-16T09:13:25.806Z,9.20
2023-04-16T09:16:21.049Z,9.20
2023-04-16T09:19:08.397Z,9.20
2023-04-16T09:22:03.311Z,9.20
2023-04-16T09:24:50.409Z,9.30
2023-04-16T09:27:44.070Z,9.30
2023-04-16T09:30:38.007Z,9.40
2023-04-16T09:33:25.153Z,9.40
2023-04-16T09:36:19.018Z,9.50
2023-04-16T09:39:06.274Z,9.50
2023-04-16T09:42:01.092Z,9.50
2023-04-16T09:44:49.877Z,9.60
2023-04-16T09:47:49.394Z,9.60
2023-04-16T09:50:36.567Z,9.50
2023-04-16T09:53:35.216Z,9.60
2023-04-16T09:56:26.128Z,9.50
2023-04-16T09:59:27.085Z,9.50
2023-04-16T10:02:15.340Z,9.60
2023-04-16T10:05:10.411Z,9.60
2023-04-16T10:08:02.082Z,9.60
2023-04-16T10:10:56.411Z,9.70
2023-04-16T10:13:43.565Z,9.80
2023-04-16T10:16:38.464Z,9.80
2023-04-16T10:19:34.150Z,9.80
2023-04-16T10:22:21.393Z,9.80
2023-04-16T10:25:17.148Z,9.90
2023-04-16T10:28:04.815Z,9.80
2023-04-16T10:30:59.279Z,9.80
2023-04-16T10:33:46.817Z,9.80
2023-04-16T10:36:44.118Z,9.80
2023-04-16T10:39:38.137Z,9.80
2023-04-16T10:42:26.042Z,9.80
2023-04-16T10:45:20.109Z,9.80
2023-04-16T10:48:10.069Z,9.90
2023-04-16T10:51:05.303Z,9.90
2023-04-16T10:53:53.870Z,9.90
2023-04-16T10:56:48.157Z,10.00
2023-04-16T10:59:37.096Z,10.00
2023-04-16T11:02:35.437Z,10.00
2023-04-16T11:05:24.133Z,10.00
2023-04-16T11:08:22.312Z,10.10
2023-04-16T11:11:10.313Z,10.00
2023-04-16T11:14:04.139Z,10.00
2023-04-16T11:16:51.256Z,10.00
2023-04-16T11:19:45.320Z,10.00
2023-04-16T11:22:36.676Z,10.00
2023-04-16T11:25:32.200Z,10.10
2023-04-16T11:28:19.264Z,10.10
2023-04-16T11:31:18.474Z,10.20
2023-04-16T11:34:08.939Z,10.20
2023-04-16T11:37:02.277Z,10.30
2023-04-16T11:39:52.988Z,10.20
2023-04-16T11:42:48.290Z,10.20
2023-04-16T11:45:35.699Z,10.20
2023-04-16T11:48:29.550Z,10.20
2023-04-16T11:51:24.328Z,10.20
2023-04-16T11:54:29.291Z,10.30
2023-04-16T11:57:27.928Z,10.30
2023-04-16T12:00:24.427Z,10.40
2023-04-16T12:03:12.188Z,10.50
2023-04-16T12:06:15.256Z,10.50
2023-04-16T12:09:22.125Z,10.60
2023-04-16T12:12:33.280Z,10.80
2023-04-16T12:15:20.369Z,11.00
2023-04-16T12:18:14.262Z,11.10
2023-04-16T12:21:05.693Z,11.20
2023-04-16T12:24:02.271Z,11.30
2023-04-16T12:26:57.463Z,11.40
2023-04-16T12:29:51.442Z,11.50
2023-04-16T12:32:38.915Z,11.50
2023-04-16T12:35:40.323Z,11.60
2023-04-16T12:38:27.626Z,11.80
2023-04-16T12:41:21.377Z,11.90
2023-04-16T12:44:13.132Z,12.00
2023-04-16T12:47:06.656Z,12.10
2023-04-16T12:49:53.731Z,12.20
2023-04-16T12:52:47.592Z,12.20
2023-04-16T12:55:34.749Z,12.20
2023-04-16T12:58:28.325Z,12.30
2023-04-16T13:01:15.455Z,12.20
2023-04-16T13:04:09.799Z,12.00
2023-04-16T13:06:57.006Z,11.90
2023-04-16T13:09:51.636Z,11.70
2023-04-16T13:12:38.875Z,11.70
2023-04-16T13:15:32.515Z,11.60
2023-04-16T13:18:19.693Z,11.60
2023-04-16T13:21:13.648Z,11.70
2023-04-16T13:24:00.855Z,11.80
2023-04-16T13:26:54.379Z,11.90
2023-04-16T13:29:41.519Z,12.00
2023-04-16T13:32:35.421Z,12.10
2023-04-16T13:35:23.167Z,12.10
2023-04-16T13:38:17.433Z,12.10
2023-04-16T13:41:05.205Z,12.10
2023-04-16T13:43:58.500Z,12.10
2023-04-16T13:46:47.828Z,12.10
2023-04-16T13:49:41.707Z,12.10
2023-04-16T13:52:28.757Z,12.20
2023-04-16T13:55:25.570Z,12.30
2023-04-16T13:58:12.654Z,12.40
2023-04-16T14:01:06.787Z,12.50
2023-04-16T14:03:54.063Z,12.60
2023-04-16T14:06:47.489Z,12.50
2023-04-16T14:09:41.428Z,12.50
2023-04-16T14:12:28.630Z,12.40
2023-04-16T14:15:22.705Z,12.30
2023-04-16T14:18:09.920Z,12.20
2023-04-16T14:21:04.712Z,12.10
2023-04-16T14:23:51.839Z,12.00
2023-04-16T14:26:45.455Z,11.90
2023-04-16T14:29:32.649Z,11.90
2023-04-16T14:32:26.759Z,11.90
2023-04-16T14:35:13.897Z,11.90
2023-04-16T14:38:07.570Z,11.80
2023-04-16T14:40:55.326Z,11.90
2023-04-16T14:43:49.527Z,11.90
2023-04-16T14:46:45.520Z,11.90
2023-04-16T14:49:39.636Z,11.90
2023-04-16T14:52:27.562Z,11.90
2023-04-16T14:55:21.798Z,11.90
2023-04-16T14:58:08.920Z,11.90
2023-04-16T15:01:02.571Z,11.80
2023-04-16T15:03:56.742Z,11.70
2023-04-16T15:06:46.462Z,11.70
2023-04-16T15:09:42.551Z,11.60
2023-04-16T15:12:29.653Z,11.60
2023-04-16T15:15:24.673Z,11.60
2023-04-16T15:18:11.774Z,11.50
2023-04-16T15:21:05.791Z,11.50
2023-04-16T15:23:53.802Z,11.40
2023-04-16T15:26:47.645Z,11.40
2023-04-16T15:29:35.376Z,11.40
2023-04-16T15:32:29.895Z,11.40
2023-04-16T15:35:16.968Z,11.30
2023-04-16T15:38:10.670Z,11.30
2023-04-16T15:41:00.974Z,11.20
2023-04-16T15:43:54.644Z,11.20
2023-04-16T15:46:48.949Z,11.20
2023-04-16T15:49:36.360Z,11.20
2023-04-16T15:52:29.586Z,11.20
2023-04-16T15:55:24.624Z,11.20
2023-04-16T15:58:19.611Z,11.20
2023-04-16T16:01:06.763Z,11.30
2023-04-16T16:04:00.734Z,11.30
2023-04-16T16:06:55.656Z,11.40
2023-04-16T16:09:42.765Z,11.50
2023-04-16T16:12:36.637Z,11.50
2023-04-16T16:15:23.776Z,11.50
2023-04-16T16:18:17.776Z,11.50
2023-04-16T16:21:04.929Z,11.50
2023-04-16T16:24:04.756Z,11.40
2023-04-16T16:26:51.877Z,11.40
2023-04-16T16:29:45.711Z,11.30
2023-04-16T16:32:32.843Z,11.20
2023-04-16T16:35:26.744Z,11.20
2023-04-16T16:38:13.835Z,11.20
2023-04-16T16:41:07.689Z,11.20
2023-04-16T16:43:56.239Z,11.20
2023-04-16T16:46:49.760Z,11.20
2023-04-16T16:49:43.709Z,11.20
2023-04-16T16:52:37.705Z,11.20
2023-04-16T16:55:24.896Z,11.20
2023-04-16T16:58:18.675Z,11.20
2023-04-16T17:01:12.782Z,11.10
2023-04-16T17:04:00.016Z,11.10
2023-04-16T17:06:54.010Z,11.00
2023-04-16T17:09:41.234Z,11.00
2023-04-16T17:12:35.050Z,11.00
2023-04-16T17:15:22.272Z,10.90
2023-04-16T17:18:15.867Z,10.90
2023-04-16T17:21:02.995Z,10.90
2023-04-16T17:23:56.749Z,10.80
2023-04-16T17:26:44.268Z,10.80
2023-04-16T17:29:37.836Z,10.80
2023-04-16T17:32:25.101Z,10.70
2023-04-16T17:35:19.806Z,10.70
2023-04-16T17:38:13.807Z,10.70
2023-04-16T17:41:00.885Z,10.60
2023-04-16T17:43:58.039Z,10.60
2023-04-16T17:46:45.193Z,10.60
2023-04-16T17:49:39.848Z,10.50
2023-04-16T17:52:34.224Z,10.50
2023-04-16T17:55:28.038Z,10.50
2023-04-16T17:58:21.780Z,10.50
2023-04-16T18:01:08.922Z,10.50
2023-04-16T18:04:02.924Z,10.40
2023-04-16T18:06:50.487Z,10.50
2023-04-16T18:09:43.845Z,10.50
2023-04-16T18:12:31.048Z,10.40
2023-04-16T18:15:24.795Z,10.40
2023-04-16T18:18:18.833Z,10.40
2023-04-16T18:21:14.624Z,10.40
2023-04-16T18:24:03.557Z,10.30
2023-04-16T18:26:56.882Z,10.30
2023-04-16T18:29:45.264Z,10.30
2023-04-16T18:32:46.834Z,10.20
2023-04-16T18:35:41.910Z,10.20
2023-04-16T18:38:49.454Z,10.20
2023-04-16T18:41:47.794Z,10.20
2023-04-16T18:44:41.942Z,10.20
2023-04-16T18:47:29.157Z,10.20
2023-04-16T18:50:22.949Z,10.10
2023-04-16T18:53:17.258Z,10.10
2023-04-16T18:56:04.602Z,10.10
2023-04-16T18:58:57.987Z,10.10
2023-04-16T19:01:45.193Z,10.00
2023-04-16T19:04:38.969Z,10.00
2023-04-16T19:07:26.090Z,10.00
2023-04-16T19:10:19.957Z,9.90
2023-04-16T19:13:07.174Z,9.90
2023-04-16T19:16:09.102Z,9.90
2023-04-16T19:18:56.271Z,9.80
2023-04-16T19:21:50.082Z,9.80
2023-04-16T19:24:37.349Z,9.80
2023-04-16T19:27:31.158Z,9.70
2023-04-16T19:30:18.435Z,9.70
2023-04-16T19:33:12.073Z,9.60
2023-04-16T19:36:00.198Z,9.60
2023-04-16T19:38:53.952Z,9.60
2023-04-16T19:41:41.074Z,9.60
2023-04-16T19:44:34.955Z,9.50
2023-04-16T19:47:22.118Z,9.50
2023-04-16T19:50:16.033Z,9.50
2023-04-16T19:53:09.991Z,9.50
2023-04-16T19:55:57.253Z,9.40
2023-04-16T19:58:51.043Z,9.40
2023-04-16T20:01:38.449Z,9.40
2023-04-16T20:04:33.174Z,9.40
2023-04-16T20:07:20.608Z,9.40
2023-04-16T20:10:15.017Z,9.40
2023-04-16T20:13:09.046Z,9.40
2023-04-16T20:15:56.471Z,9.40
2023-04-16T20:18:50.118Z,9.40
2023-04-16T20:21:37.208Z,9.40
2023-04-16T20:24:31.014Z,9.40
2023-04-16T20:27:19.427Z,9.40
2023-04-16T20:30:14.155Z,9.40
2023-04-16T20:33:01.336Z,9.30
2023-04-16T20:35:57.120Z,9.40
2023-04-16T20:38:45.037Z,9.40
2023-04-16T20:41:39.103Z,9.30
2023-04-16T20:44:33.001Z,9.30
2023-04-16T20:47:28.055Z,9.30
2023-04-16T20:50:15.786Z,9.30
2023-04-16T20:53:10.102Z,9.30
2023-04-16T20:55:57.607Z,9.30
2023-04-16T20:58:51.087Z,9.20
2023-04-16T21:01:38.232Z,9.30
2023-04-16T21:04:32.310Z,9.30
2023-04-16T21:07:19.489Z,9.30
2023-04-16T21:10:14.155Z,9.30
2023-04-16T21:13:08.136Z,9.30
2023-04-16T21:15:55.524Z,9.30
2023-04-16T21:18:49.146Z,9.30
2023-04-16T21:21:38.445Z,9.30
2023-04-16T21:24:32.122Z,9.30
2023-04-16T21:27:19.246Z,9.30
2023-04-16T21:30:13.128Z,9.30
2023-04-16T21:33:00.428Z,9.20
2023-04-16T21:36:01.168Z,9.20
2023-04-16T21:38:48.253Z,9.20
2023-04-16T21:41:42.239Z,9.20
2023-04-16T21:44:36.304Z,9.20
2023-04-16T21:47:30.203Z,9.20
2023-04-16T21:50:17.454Z,9.20
2023-04-16T21:53:13.217Z,9.20
2023-04-16T21:56:00.749Z,9.20
2023-04-16T21:58:54.164Z,9.20
2023-04-16T22:01:41.640Z,9.20
2023-04-16T22:04:44.155Z,9.20
2023-04-16T22:07:38.244Z,9.20
2023-04-16T22:10:25.790Z,9.20
2023-04-16T22:13:20.238Z,9.20
2023-04-16T22:16:08.805Z,9.20
2023-04-16T22:19:04.179Z,9.10
2023-04-16T22:21:51.254Z,9.10
2023-04-16T22:24:45.455Z,9.10
2023-04-16T22:27:33.495Z,9.10
2023-04-16T22:30:27.194Z,9.10
2023-04-16T22:33:21.321Z,9.10
2023-04-16T22:36:08.692Z,9.10
2023-04-16T22:39:02.254Z,9.10
2023-04-16T22:41:49.445Z,9.00
2023-04-16T22:44:43.327Z,9.00
2023-04-16T22:47:30.572Z,9.10
2023-04-16T22:50:25.267Z,9.10
2023-04-16T22:53:12.420Z,9.10
2023-04-16T22:56:06.278Z,9.10
2023-04-16T22:58:53.512Z,9.00
2023-04-16T23:01:48.361Z,9.00
2023-04-16T23:04:35.555Z,8.90
2023-04-16T23:07:29.331Z,8.90
2023-04-16T23:10:23.286Z,8.90
2023-04-16T23:13:17.418Z,8.90
2023-04-16T23:16:11.360Z,8.90
2023-04-16T23:18:58.555Z,8.90
2023-04-16T23:21:52.324Z,8.90
2023-04-16T23:24:39.458Z,8.90
2023-04-16T23:27:33.354Z,8.90
2023-04-16T23:30:20.646Z,8.90
2023-04-16T23:33:14.397Z,8.90
2023-04-16T23:36:01.648Z,8.90
2023-04-16T23:38:55.364Z,8.90
2023-04-16T23:41:49.353Z,8.90
2023-04-16T23:44:36.593Z,8.80
2023-04-16T23:47:30.441Z,8.80
2023-04-16T23:50:24.394Z,8.80
2023-04-16T23:53:11.560Z,8.70
2023-04-16T23:56:05.376Z,8.70
2023-04-16T23:58:59.413Z,8.80
